createdAt,value
2023-02-16T00:00:15.709Z,15.43
2023-02-16T00:02:42.338Z,15.20
2023-02-16T00:05:38.349Z,15.73
2023-02-16T00:08:05.088Z,13.25
2023-02-16T00:10:34.485Z,14.25
2023-02-16T00:13:20.536Z,16.65
2023-02-16T00:15:47.689Z,14.55
2023-02-16T00:18:21.964Z,15.95
2023-02-16T00:20:49.339Z,18.67
2023-02-16T00:23:16.354Z,20.55
2023-02-16T00:25:43.197Z,14.48
2023-02-16T00:28:19.063Z,13.35
2023-02-16T00:30:46.379Z,16.98
2023-02-16T00:33:15.899Z,19.85
2023-02-16T00:35:42.949Z,14.38
2023-02-16T00:38:09.543Z,14.90
2023-02-16T00:40:36.325Z,19.95
2023-02-16T00:43:03.244Z,16.17
2023-02-16T00:45:33.824Z,15.38
2023-02-16T00:48:00.460Z,17.50
2023-02-16T00:50:32.929Z,13.85
2023-02-16T00:53:00.238Z,15.43
2023-02-16T00:55:30.362Z,15.02
2023-02-16T00:58:05.317Z,16.63
2023-02-16T01:00:36.344Z,12.30
2023-02-16T01:03:07.799Z,12.60
2023-02-16T01:05:34.559Z,14.10
2023-02-16T01:08:21.063Z,15.27
2023-02-16T01:11:07.382Z,15.00
2023-02-16T01:13:43.609Z,16.15
2023-02-16T01:16:13.962Z,17.58
2023-02-16T01:18:40.755Z,19.05
2023-02-16T01:21:07.371Z,16.00
2023-02-16T01:23:33.953Z,13.35
2023-02-16T01:26:00.565Z,17.45
2023-02-16T01:28:27.330Z,15.15
2023-02-16T01:30:54.153Z,14.25
2023-02-16T01:33:21.177Z,19.15
2023-02-16T01:35:55.456Z,21.50
2023-02-16T01:38:25.124Z,15.10
2023-02-16T01:40:59.942Z,20.00
2023-02-16T01:43:34.882Z,15.88
2023-02-16T01:46:12.410Z,15.77
2023-02-16T01:48:39.123Z,19.08
2023-02-16T01:51:16.656Z,16.10
2023-02-16T01:53:53.476Z,15.50
2023-02-16T01:56:41.805Z,14.77
2023-02-16T01:59:37.653Z,15.93
2023-02-16T02:02:05.318Z,14.00
2023-02-16T02:04:58.899Z,14.13
2023-02-16T02:07:41.244Z,18.25
2023-02-16T02:10:15.745Z,12.75
2023-02-16T02:12:53.223Z,17.52
2023-02-16T02:15:24.631Z,16.13
2023-02-16T02:17:51.202Z,14.68
2023-02-16T02:20:58.158Z,16.08
2023-02-16T02:23:43.045Z,18.70
2023-02-16T02:26:28.821Z,13.48
2023-02-16T02:28:55.275Z,20.80
2023-02-16T02:31:50.390Z,15.93
2023-02-16T02:34:39.691Z,16.42
2023-02-16T02:37:29.632Z,16.85
2023-02-16T02:40:13.533Z,14.80
2023-02-16T02:43:03.123Z,15.80
2023-02-16T02:45:36.643Z,14.52
2023-02-16T02:48:03.389Z,15.95
2023-02-16T02:50:38.588Z,12.68
2023-02-16T02:53:12.715Z,16.55
2023-02-16T02:56:02.251Z,14.93
2023-02-16T02:59:11.744Z,16.95
2023-02-16T03:01:44.295Z,17.05
2023-02-16T03:04:15.195Z,19.63
2023-02-16T03:06:47.963Z,16.55
2023-02-16T03:09:16.347Z,21.48
2023-02-16T03:12:03.866Z,17.05
2023-02-16T03:14:37.951Z,21.70
2023-02-16T03:17:29.154Z,19.00
2023-02-16T03:20:15.132Z,17.60
2023-02-16T03:23:01.521Z,22.42
2023-02-16T03:25:51.570Z,24.42
2023-02-16T03:28:40.253Z,24.33
2023-02-16T03:31:10.223Z,27.23
2023-02-16T03:33:36.952Z,27.20
2023-02-16T03:36:04.904Z,25.15
2023-02-16T03:38:32.105Z,43.92
2023-02-16T03:41:00.015Z,37.55
2023-02-16T03:43:28.388Z,48.13
2023-02-16T03:45:55.221Z,42.42
2023-02-16T03:48:22.052Z,35.35
2023-02-16T03:50:48.606Z,48.05
2023-02-16T03:53:17.469Z,84.13
2023-02-16T03:55:47.118Z,52.28
2023-02-16T03:58:17.069Z,35.22
2023-02-16T04:00:44.592Z,44.00
2023-02-16T04:03:11.215Z,47.40
2023-02-16T04:05:38.541Z,75.72
2023-02-16T04:08:06.727Z,55.88
2023-02-16T04:10:33.363Z,62.90
2023-02-16T04:13:00.178Z,39.95
2023-02-16T04:15:28.816Z,64.85
2023-02-16T04:17:55.709Z,56.35
2023-02-16T04:20:28.774Z,76.05
2023-02-16T04:22:55.565Z,49.80
2023-02-16T04:25:22.424Z,50.58
2023-02-16T04:27:49.421Z,59.03
2023-02-16T04:30:19.551Z,41.28
2023-02-16T04:32:46.422Z,50.90
2023-02-16T04:35:13.426Z,31.25
2023-02-16T04:37:40.029Z,34.75
2023-02-16T04:40:08.721Z,41.65
2023-02-16T04:42:35.439Z,36.13
2023-02-16T04:45:01.941Z,29.48
2023-02-16T04:47:28.734Z,50.80
2023-02-16T04:49:55.315Z,40.47
2023-02-16T04:52:22.042Z,36.45
2023-02-16T04:54:48.716Z,33.85
2023-02-16T04:57:15.976Z,32.05
2023-02-16T04:59:42.835Z,44.85
2023-02-16T05:02:09.477Z,38.80
2023-02-16T05:04:36.141Z,33.47
2023-02-16T05:07:02.699Z,48.65
2023-02-16T05:09:29.261Z,28.35
2023-02-16T05:12:14.422Z,38.80
2023-02-16T05:14:47.190Z,42.75
2023-02-16T05:17:22.647Z,47.63
2023-02-16T05:19:57.266Z,44.72
2023-02-16T05:22:24.289Z,50.88
2023-02-16T05:24:51.659Z,45.90
2023-02-16T05:27:27.706Z,28.75
2023-02-16T05:29:54.889Z,37.20
2023-02-16T05:32:21.891Z,30.95
2023-02-16T05:34:49.003Z,29.83
2023-02-16T05:37:17.195Z,26.75
2023-02-16T05:39:44.209Z,41.38
2023-02-16T05:42:11.155Z,26.48
2023-02-16T05:44:38.025Z,35.97
2023-02-16T05:47:04.971Z,39.13
2023-02-16T05:49:31.603Z,34.97
2023-02-16T05:51:58.150Z,39.30
2023-02-16T05:54:24.806Z,40.42
2023-02-16T05:56:52.789Z,32.92
2023-02-16T05:59:19.481Z,35.47
2023-02-16T06:01:50.539Z,41.75
2023-02-16T06:04:18.249Z,38.33
2023-02-16T06:06:44.922Z,33.78
2023-02-16T06:09:11.707Z,41.05
2023-02-16T06:11:38.642Z,31.48
2023-02-16T06:14:09.774Z,37.47
2023-02-16T06:16:38.401Z,21.45
2023-02-16T06:19:05.673Z,37.47
2023-02-16T06:21:32.833Z,28.08
2023-02-16T06:23:59.884Z,27.98
2023-02-16T06:26:26.866Z,27.10
2023-02-16T06:28:54.401Z,38.63
2023-02-16T06:31:21.586Z,33.00
2023-02-16T06:33:48.182Z,27.17
2023-02-16T06:36:15.409Z,37.28
2023-02-16T06:38:42.186Z,39.63
2023-02-16T06:41:09.497Z,39.97
2023-02-16T06:43:36.177Z,34.92
2023-02-16T06:46:02.778Z,44.47
2023-02-16T06:48:29.625Z,29.02
2023-02-16T06:50:56.469Z,24.48
2023-02-16T06:53:23.227Z,48.47
2023-02-16T06:55:51.036Z,21.08
2023-02-16T06:58:17.601Z,29.65
2023-02-16T07:00:44.215Z,33.50
2023-02-16T07:03:10.862Z,29.38
2023-02-16T07:05:37.921Z,33.47
2023-02-16T07:08:04.812Z,33.17
2023-02-16T07:10:43.844Z,29.20
2023-02-16T07:13:15.534Z,41.30
2023-02-16T07:15:42.070Z,25.95
2023-02-16T07:18:08.608Z,27.80
2023-02-16T07:20:35.136Z,34.35
2023-02-16T07:23:01.856Z,36.97
2023-02-16T07:25:28.699Z,39.20
2023-02-16T07:27:55.399Z,38.42
2023-02-16T07:30:22.506Z,26.20
2023-02-16T07:32:49.385Z,26.48
2023-02-16T07:35:15.954Z,34.45
2023-02-16T07:37:42.548Z,22.83
2023-02-16T07:40:09.604Z,37.45
2023-02-16T07:42:36.239Z,26.33
2023-02-16T07:45:02.904Z,32.10
2023-02-16T07:47:29.437Z,22.92
2023-02-16T07:49:56.408Z,23.58
2023-02-16T07:52:22.960Z,32.78
2023-02-16T07:54:49.535Z,54.85
2023-02-16T07:57:16.060Z,61.65
2023-02-16T07:59:42.793Z,56.38
2023-02-16T08:02:16.328Z,31.15
2023-02-16T08:04:43.738Z,31.58
2023-02-16T08:07:14.017Z,21.15
2023-02-16T08:09:40.973Z,40.30
2023-02-16T08:12:12.044Z,23.65
2023-02-16T08:14:39.035Z,32.22
2023-02-16T08:17:07.075Z,28.25
2023-02-16T08:19:34.515Z,38.15
2023-02-16T08:22:02.472Z,33.05
2023-02-16T08:24:29.605Z,29.63
2023-02-16T08:26:56.740Z,25.60
2023-02-16T08:29:23.777Z,19.65
2023-02-16T08:31:51.127Z,22.00
2023-02-16T08:34:19.845Z,20.83
2023-02-16T08:36:51.383Z,28.23
2023-02-16T08:39:20.993Z,20.08
2023-02-16T08:41:49.134Z,19.42
2023-02-16T08:44:17.444Z,22.30
2023-02-16T08:46:47.601Z,22.80
2023-02-16T08:49:17.439Z,32.70
2023-02-16T08:51:47.338Z,37.85
2023-02-16T08:54:20.605Z,49.90
2023-02-16T08:56:48.052Z,42.70
2023-02-16T08:59:16.408Z,23.05
2023-02-16T09:01:43.142Z,18.90
2023-02-16T09:04:09.943Z,22.98
2023-02-16T09:06:38.512Z,20.55
2023-02-16T09:09:05.962Z,16.23
2023-02-16T09:11:32.913Z,21.80
2023-02-16T09:14:00.487Z,19.60
2023-02-16T09:16:29.804Z,20.85
2023-02-16T09:18:57.444Z,17.58
2023-02-16T09:21:25.717Z,23.67
2023-02-16T09:23:55.848Z,22.63
2023-02-16T09:26:24.363Z,20.60
2023-02-16T09:28:51.799Z,25.05
2023-02-16T09:31:25.801Z,27.13
2023-02-16T09:33:58.134Z,31.25
2023-02-16T09:36:24.707Z,34.75
2023-02-16T09:38:51.485Z,29.45
2023-02-16T09:41:25.922Z,26.48
2023-02-16T09:43:57.233Z,24.40
2023-02-16T09:46:25.790Z,25.58
2023-02-16T09:48:53.136Z,23.33
2023-02-16T09:51:33.696Z,23.38
2023-02-16T09:54:14.408Z,22.30
2023-02-16T09:56:58.730Z,30.42
2023-02-16T09:59:41.845Z,32.00
2023-02-16T10:02:27.288Z,26.88
2023-02-16T10:05:17.391Z,29.48
2023-02-16T10:07:49.971Z,30.10
2023-02-16T10:10:23.420Z,32.17
2023-02-16T10:13:00.454Z,33.67
2023-02-16T10:15:30.423Z,25.65
2023-02-16T10:18:36.757Z,34.42
2023-02-16T10:21:09.409Z,26.77
2023-02-16T10:23:57.955Z,24.17
2023-02-16T10:26:38.699Z,24.48
2023-02-16T10:29:17.048Z,22.85
2023-02-16T10:32:25.028Z,19.42
2023-02-16T10:34:51.520Z,23.50
2023-02-16T10:37:50.593Z,23.70
2023-02-16T10:40:23.683Z,23.50
2023-02-16T10:43:11.355Z,27.88
2023-02-16T10:45:45.270Z,20.52
2023-02-16T10:48:13.336Z,20.40
2023-02-16T10:50:51.238Z,23.13
2023-02-16T10:53:43.346Z,38.78
2023-02-16T10:56:31.480Z,37.50
2023-02-16T10:59:01.610Z,16.48
2023-02-16T11:01:40.151Z,15.00
2023-02-16T11:04:06.831Z,20.92
2023-02-16T11:06:36.391Z,15.05
2023-02-16T11:09:04.475Z,15.68
2023-02-16T11:11:40.133Z,14.00
2023-02-16T11:14:25.267Z,14.48
2023-02-16T11:17:12.688Z,14.23
2023-02-16T11:19:41.623Z,14.88
2023-02-16T11:22:26.248Z,12.75
2023-02-16T11:24:53.400Z,13.55
2023-02-16T11:27:22.531Z,10.50
2023-02-16T11:29:50.725Z,12.75
2023-02-16T11:32:19.689Z,10.13
2023-02-16T11:34:55.168Z,9.18
2023-02-16T11:37:33.745Z,8.43
2023-02-16T11:40:05.304Z,10.95
2023-02-16T11:42:44.716Z,8.93
2023-02-16T11:45:25.201Z,9.20
2023-02-16T11:47:55.202Z,9.30
2023-02-16T11:50:29.723Z,12.63
2023-02-16T11:53:13.211Z,12.45
2023-02-16T11:55:46.749Z,15.45
2023-02-16T11:58:26.676Z,13.50
2023-02-16T12:01:06.232Z,11.00
2023-02-16T12:04:08.265Z,7.93
2023-02-16T12:07:03.593Z,9.63
2023-02-16T12:12:06.263Z,7.82
2023-02-16T12:14:36.670Z,7.18
2023-02-16T12:17:27.988Z,5.88
2023-02-16T12:20:32.140Z,11.10
2023-02-16T12:23:13.731Z,7.95
2023-02-16T12:25:55.303Z,10.02
2023-02-16T12:28:59.694Z,10.00
2023-02-16T12:31:52.166Z,10.30
2023-02-16T12:34:30.218Z,14.45
2023-02-16T12:36:56.706Z,6.30
2023-02-16T12:39:35.230Z,14.30
2023-02-16T12:42:21.419Z,7.65
2023-02-16T12:44:56.553Z,4.70
2023-02-16T12:47:32.429Z,9.00
2023-02-16T12:50:04.263Z,5.20
2023-02-16T12:52:37.797Z,5.93
2023-02-16T12:55:27.068Z,7.23
2023-02-16T12:58:15.056Z,7.25
2023-02-16T13:00:49.728Z,5.93
2023-02-16T13:03:38.753Z,8.05
2023-02-16T13:06:14.539Z,11.98
2023-02-16T13:08:51.492Z,8.82
2023-02-16T13:11:24.756Z,6.30
2023-02-16T13:13:56.903Z,10.63
2023-02-16T13:16:42.528Z,6.38
2023-02-16T13:19:13.932Z,6.43
2023-02-16T13:22:00.833Z,11.70
2023-02-16T13:24:33.552Z,6.35
2023-02-16T13:27:09.086Z,6.72
2023-02-16T13:30:13.275Z,5.88
2023-02-16T13:32:45.626Z,5.95
2023-02-16T13:35:48.580Z,6.80
2023-02-16T13:38:33.470Z,17.17
2023-02-16T13:43:34.844Z,5.88
2023-02-16T13:46:06.763Z,8.13
2023-02-16T13:48:47.466Z,6.47
2023-02-16T13:51:21.056Z,10.82
2023-02-16T13:54:03.548Z,10.20
2023-02-16T13:56:30.983Z,9.95
2023-02-16T13:59:00.643Z,7.85
2023-02-16T14:01:36.615Z,9.65
2023-02-16T14:04:04.600Z,5.68
2023-02-16T14:06:37.066Z,7.72
2023-02-16T14:09:12.416Z,4.82
2023-02-16T14:11:52.994Z,9.10
2023-02-16T14:14:25.351Z,8.50
2023-02-16T14:16:51.983Z,10.52
2023-02-16T14:19:25.981Z,9.88
2023-02-16T14:21:52.743Z,4.90
2023-02-16T14:24:25.700Z,7.82
2023-02-16T14:27:04.146Z,9.02
2023-02-16T14:29:56.137Z,7.70
2023-02-16T14:32:28.555Z,10.20
2023-02-16T14:35:17.129Z,11.75
2023-02-16T14:37:53.170Z,8.10
2023-02-16T14:40:23.440Z,5.97
2023-02-16T14:43:02.733Z,9.60
2023-02-16T14:45:51.006Z,11.50
2023-02-16T14:48:21.120Z,5.75
2023-02-16T14:51:08.442Z,5.45
2023-02-16T14:54:04.509Z,9.00
2023-02-16T14:57:00.499Z,10.70
2023-02-16T14:59:39.252Z,11.05
2023-02-16T15:02:24.527Z,12.48
2023-02-16T15:04:51.178Z,5.65
2023-02-16T15:07:18.780Z,8.95
2023-02-16T15:09:47.660Z,6.53
2023-02-16T15:12:21.537Z,6.28
2023-02-16T15:15:04.355Z,6.28
2023-02-16T15:17:44.942Z,9.40
2023-02-16T15:20:27.566Z,4.95
2023-02-16T15:22:59.735Z,16.45
2023-02-16T15:25:30.329Z,6.03
2023-02-16T15:28:00.798Z,8.82
2023-02-16T15:30:52.785Z,8.25
2023-02-16T15:33:23.035Z,9.50
2023-02-16T15:35:55.616Z,11.63
2023-02-16T15:38:24.931Z,9.98
2023-02-16T15:40:57.751Z,8.10
2023-02-16T15:43:43.891Z,7.25
2023-02-16T15:46:39.746Z,8.70
2023-02-16T15:49:26.614Z,6.07
2023-02-16T15:51:56.783Z,8.57
2023-02-16T15:54:31.201Z,8.10
2023-02-16T15:59:38.654Z,7.82
2023-02-16T16:02:13.507Z,13.50
2023-02-16T16:04:42.749Z,6.95
2023-02-16T16:07:14.986Z,18.42
2023-02-16T16:09:42.552Z,40.13
2023-02-16T16:12:14.207Z,7.50
2023-02-16T16:14:50.277Z,10.02
2023-02-16T16:17:22.602Z,4.68
2023-02-16T16:19:49.445Z,6.95
2023-02-16T16:22:38.538Z,5.55
2023-02-16T16:25:30.150Z,4.68
2023-02-16T16:27:57.194Z,8.40
2023-02-16T16:30:23.832Z,6.30
2023-02-16T16:33:09.284Z,8.95
2023-02-16T16:35:40.098Z,5.18
2023-02-16T16:38:21.506Z,6.78
2023-02-16T16:41:06.938Z,3.10
2023-02-16T16:43:37.501Z,8.05
2023-02-16T16:46:33.744Z,4.22
2023-02-16T16:49:04.499Z,4.20
2023-02-16T16:51:31.682Z,4.05
2023-02-16T16:54:00.859Z,6.70
2023-02-16T16:56:35.991Z,7.63
2023-02-16T16:59:03.339Z,5.90
2023-02-16T17:01:30.561Z,6.90
2023-02-16T17:03:57.517Z,11.25
2023-02-16T17:06:25.155Z,4.95
2023-02-16T17:08:52.029Z,3.80
2023-02-16T17:11:35.408Z,8.70
2023-02-16T17:14:16.929Z,5.18
2023-02-16T17:16:46.926Z,7.30
2023-02-16T17:19:15.488Z,4.68
2023-02-16T17:21:42.868Z,8.10
2023-02-16T17:24:10.292Z,6.97
2023-02-16T17:26:37.979Z,8.82
2023-02-16T17:29:06.327Z,4.90
2023-02-16T17:31:34.003Z,7.95
2023-02-16T17:34:00.866Z,12.52
2023-02-16T17:36:28.078Z,9.32
2023-02-16T17:38:55.061Z,10.55
2023-02-16T17:41:24.283Z,7.30
2023-02-16T17:43:51.429Z,7.28
2023-02-16T17:46:19.393Z,12.18
2023-02-16T17:48:49.454Z,11.82
2023-02-16T17:51:18.380Z,13.20
2023-02-16T17:53:45.153Z,14.45
2023-02-16T17:56:14.341Z,9.57
2023-02-16T17:58:41.804Z,13.02
2023-02-16T18:01:12.897Z,14.10
2023-02-16T18:03:39.473Z,13.48
2023-02-16T18:06:06.447Z,9.85
2023-02-16T18:08:33.327Z,9.18
2023-02-16T18:11:03.019Z,15.82
2023-02-16T18:13:29.988Z,10.65
2023-02-16T18:15:58.434Z,12.05
2023-02-16T18:18:25.002Z,8.50
2023-02-16T18:20:51.798Z,18.58
2023-02-16T18:23:18.456Z,14.20
2023-02-16T18:25:45.764Z,15.50
2023-02-16T18:28:20.602Z,14.05
2023-02-16T18:30:49.251Z,11.25
2023-02-16T18:33:17.023Z,14.75
2023-02-16T18:35:43.705Z,11.60
2023-02-16T18:38:10.617Z,10.27
2023-02-16T18:40:37.332Z,13.07
2023-02-16T18:43:03.971Z,16.73
2023-02-16T18:45:30.572Z,16.85
2023-02-16T18:47:57.277Z,20.52
2023-02-16T18:50:23.948Z,63.38
2023-02-16T18:52:50.585Z,27.13
2023-02-16T18:55:17.231Z,22.80
2023-02-16T18:57:43.867Z,17.02
2023-02-16T19:00:14.789Z,19.77
2023-02-16T19:02:43.229Z,14.15
2023-02-16T19:05:10.981Z,10.50
2023-02-16T19:07:37.746Z,9.07
2023-02-16T19:10:05.616Z,16.95
2023-02-16T19:12:32.232Z,15.10
2023-02-16T19:14:58.810Z,10.93
2023-02-16T19:17:25.353Z,13.30
2023-02-16T19:19:51.852Z,14.85
2023-02-16T19:22:18.446Z,14.27
2023-02-16T19:24:45.326Z,12.73
2023-02-16T19:27:12.511Z,15.60
2023-02-16T19:29:39.503Z,18.08
2023-02-16T19:32:06.088Z,14.63
2023-02-16T19:34:33.266Z,21.83
2023-02-16T19:36:59.968Z,13.68
2023-02-16T19:39:26.539Z,16.60
2023-02-16T19:41:53.105Z,13.07
2023-02-16T19:44:19.740Z,19.20
2023-02-16T19:46:46.317Z,16.02
2023-02-16T19:49:15.291Z,17.88
2023-02-16T19:51:42.185Z,20.05
2023-02-16T19:54:09.061Z,17.10
2023-02-16T19:56:40.437Z,18.85
2023-02-16T19:59:08.191Z,21.73
2023-02-16T20:01:34.943Z,18.92
2023-02-16T20:04:02.918Z,21.30
2023-02-16T20:06:37.198Z,22.27
2023-02-16T20:09:04.250Z,24.27
2023-02-16T20:11:31.411Z,20.77
2023-02-16T20:13:58.236Z,20.75
2023-02-16T20:16:27.067Z,21.33
2023-02-16T20:18:55.243Z,25.65
2023-02-16T20:21:27.611Z,23.70
2023-02-16T20:24:00.074Z,21.15
2023-02-16T20:26:34.311Z,26.63
2023-02-16T20:29:01.546Z,23.92
2023-02-16T20:31:41.577Z,19.60
2023-02-16T20:34:09.820Z,26.08
2023-02-16T20:36:37.446Z,27.70
2023-02-16T20:39:06.721Z,20.48
2023-02-16T20:41:33.544Z,21.73
2023-02-16T20:44:02.831Z,27.90
2023-02-16T20:46:29.783Z,27.45
2023-02-16T20:48:56.714Z,27.83
2023-02-16T20:51:23.231Z,27.05
2023-02-16T20:53:49.838Z,30.13
2023-02-16T20:56:24.332Z,30.15
2023-02-16T20:58:53.168Z,33.20
2023-02-16T21:01:23.777Z,31.77
2023-02-16T21:03:51.669Z,41.00
2023-02-16T21:06:19.522Z,42.42
2023-02-16T21:08:46.711Z,46.38
2023-02-16T21:11:14.671Z,51.92
2023-02-16T21:13:41.897Z,60.00
2023-02-16T21:16:09.354Z,55.08
2023-02-16T21:18:38.756Z,58.45
2023-02-16T21:21:07.888Z,58.55
2023-02-16T21:23:34.480Z,51.65
2023-02-16T21:26:04.198Z,52.75
2023-02-16T21:28:31.315Z,50.35
2023-02-16T21:31:05.785Z,43.20
2023-02-16T21:33:32.502Z,44.22
2023-02-16T21:36:23.305Z,48.88
2023-02-16T21:38:51.118Z,47.95
2023-02-16T21:41:26.487Z,40.97
2023-02-16T21:44:07.078Z,44.90
2023-02-16T21:46:39.481Z,46.25
2023-02-16T21:49:08.615Z,41.53
2023-02-16T21:51:37.646Z,37.28
2023-02-16T21:54:09.739Z,30.65
2023-02-16T21:56:41.756Z,28.80
2023-02-16T21:59:11.978Z,23.83
2023-02-16T22:01:44.722Z,23.63
2023-02-16T22:04:13.379Z,26.92
2023-02-16T22:06:43.193Z,19.65
2023-02-16T22:09:12.813Z,20.25
2023-02-16T22:11:39.458Z,24.38
2023-02-16T22:14:06.039Z,21.88
2023-02-16T22:16:35.400Z,26.90
2023-02-16T22:19:07.258Z,21.20
2023-02-16T22:21:38.650Z,31.15
2023-02-16T22:24:05.852Z,29.70
2023-02-16T22:26:34.632Z,28.17
2023-02-16T22:29:06.751Z,36.60
2023-02-16T22:31:33.510Z,28.08
2023-02-16T22:34:02.953Z,32.90
2023-02-16T22:36:30.005Z,28.75
2023-02-16T22:38:56.716Z,28.05
2023-02-16T22:41:24.544Z,24.85
2023-02-16T22:43:55.608Z,24.75
2023-02-16T22:46:24.214Z,24.55
2023-02-16T22:48:52.382Z,24.17
2023-02-16T22:51:21.284Z,23.60
2023-02-16T22:53:48.564Z,27.25
2023-02-16T22:56:17.624Z,25.75
2023-02-16T22:58:44.563Z,24.85
2023-02-16T23:01:16.528Z,28.70
2023-02-16T23:03:45.637Z,23.10
2023-02-16T23:06:17.596Z,30.42
2023-02-16T23:08:45.963Z,38.78
2023-02-16T23:11:13.013Z,25.92
2023-02-16T23:13:39.727Z,37.80
2023-02-16T23:16:09.289Z,26.38
2023-02-16T23:18:35.932Z,29.33
2023-02-16T23:21:09.293Z,30.73
2023-02-16T23:23:36.414Z,28.20
2023-02-16T23:26:06.208Z,27.48
2023-02-16T23:28:34.412Z,27.35
2023-02-16T23:31:01.295Z,25.15
2023-02-16T23:33:27.997Z,21.65
2023-02-16T23:35:55.495Z,20.23
2023-02-16T23:38:22.706Z,21.35
2023-02-16T23:41:11.232Z,25.33
2023-02-16T23:43:38.205Z,25.80
2023-02-16T23:46:05.777Z,24.05
2023-02-16T23:48:33.458Z,27.42
2023-02-16T23:51:00.354Z,20.40
2023-02-16T23:53:28.282Z,20.90
2023-02-16T23:55:58.638Z,22.25
2023-02-16T23:58:27.522Z,22.02
